WESTPORT MEDIA Westport In The Media

Enter your "Place, State", US Zip Code or ICAO:  

Palma De Mallorca / Son San Juan, Spain

 Lat: 39.55N, Lon: 2.73E
ICAO Used: LEPA
Current Conditions
Updated: 11:00 PM GMT1 FRI AUG 1 2014
Sun & Moon Information
Partly Cloudy
Partly Cloudy
Temp: 26°C
Humidity: 69%
Wind Speed: SSE 2 MPH
Barometer: 1009 mb
Dewpoint: 20°C
Heat Index: 27°C
Wind Chill: 26°C
Civil Twilight: 5:17 AM GMT1 Moon Phase:
Waxing Crescent Moon
Sunrise: 5:47 AM GMT1
Sunset: 8:01 PM GMT1
Civil Twilight: 8:31 PM GMT1
Forecast for Palma De Mallorca / Son San Juan, Spain:
(Forecast based on TAF for )
0100 AM GMT1 FRI AUG 01 2014
  
MORNING AFTERNOON EVENING OVERNIGHT
Fair Fair Fair Fair
ZoneCast:
Dated: 0100 AM GMT1 FRI AUG 01 2014
Morning...Becoming fair with winds from the southwest at 14 mph.

Afternoon...Fair with winds from the southwest at 14 mph.

Evening...Fair with winds from the southwest at 14 mph.

Overnight...Fair with winds from the southwest at 14 mph.

Original Encoded TAF:
Dated: 0100 AM GMT1 FRI AUG 01 2014
TAF LEPA 011700Z 0118/0218 VRB04KT 9999 FEW014 TX29/0212Z TN21/0205Z 
     TEMPO 0118/0121 22010KT 
     PROB30 
     TEMPO 0118/0206 BKN014 
     BECMG 0210/0212 22012KT